sensor_id;sensor_type;location;lat;lon;timestamp;pressure;altitude;pressure_sealevel;temperature;humidity
65359;BME280;52491;45.900;6.346;2023-05-20T00:00:51;93630.19;;;23.64;35.03
65359;BME280;52491;45.900;6.346;2023-05-20T00:03:18;93625.66;;;23.65;34.92
65359;BME280;52491;45.900;6.346;2023-05-20T00:05:47;93625.66;;;23.65;35.07
65359;BME280;52491;45.900;6.346;2023-05-20T00:08:13;93626.75;;;23.64;34.96
65359;BME280;52491;45.900;6.346;2023-05-20T00:10:39;93628.31;;;23.65;35.09
65359;BME280;52491;45.900;6.346;2023-05-20T00:13:05;93630.19;;;23.64;34.96
65359;BME280;52491;45.900;6.346;2023-05-20T00:15:31;93619.53;;;23.64;35.17
65359;BME280;52491;45.900;6.346;2023-05-20T00:17:57;93626.47;;;23.65;34.81
65359;BME280;52491;45.900;6.346;2023-05-20T00:20:22;93622.22;;;23.64;34.99
65359;BME280;52491;45.900;6.346;2023-05-20T00:22:48;93620.59;;;23.63;34.78
65359;BME280;52491;45.900;6.346;2023-05-20T00:25:14;93616.09;;;23.64;34.89
65359;BME280;52491;45.900;6.346;2023-05-20T00:27:40;93615.28;;;23.63;34.81
65359;BME280;52491;45.900;6.346;2023-05-20T00:30:06;93609.94;;;23.63;34.94
65359;BME280;52491;45.900;6.346;2023-05-20T00:32:33;93601.16;;;23.63;34.73
65359;BME280;52491;45.900;6.346;2023-05-20T00:34:59;93602.25;;;23.62;34.87
65359;BME280;52491;45.900;6.346;2023-05-20T00:37:25;93590.53;;;23.63;34.92
65359;BME280;52491;45.900;6.346;2023-05-20T00:39:51;93595.84;;;23.63;34.98
65359;BME280;52491;45.900;6.346;2023-05-20T00:42:23;93597.47;;;23.64;34.89
65359;BME280;52491;45.900;6.346;2023-05-20T00:44:49;93596.13;;;23.61;34.88
65359;BME280;52491;45.900;6.346;2023-05-20T00:47:16;93588.94;;;23.62;34.78
65359;BME280;52491;45.900;6.346;2023-05-20T00:49:46;93584.41;;;23.62;34.88
65359;BME280;52491;45.900;6.346;2023-05-20T00:52:13;93583.63;;;23.62;35.02
65359;BME280;52491;45.900;6.346;2023-05-20T00:54:39;93580.16;;;23.61;34.99
65359;BME280;52491;45.900;6.346;2023-05-20T00:57:06;93580.16;;;23.61;34.76
65359;BME280;52491;45.900;6.346;2023-05-20T00:59:35;93578.28;;;23.62;34.78
65359;BME280;52491;45.900;6.346;2023-05-20T01:02:02;93578.53;;;23.60;34.82
65359;BME280;52491;45.900;6.346;2023-05-20T01:04:29;93582.00;;;23.61;35.00
65359;BME280;52491;45.900;6.346;2023-05-20T01:06:54;93572.19;;;23.61;34.70
65359;BME280;52491;45.900;6.346;2023-05-20T01:09:22;93576.69;;;23.61;34.77
65359;BME280;52491;45.900;6.346;2023-05-20T01:11:53;93571.34;;;23.61;34.83
65359;BME280;52491;45.900;6.346;2023-05-20T01:14:23;93577.75;;;23.60;34.80
65359;BME280;52491;45.900;6.346;2023-05-20T01:16:52;93572.44;;;23.60;34.75
65359;BME280;52491;45.900;6.346;2023-05-20T01:19:45;93566.03;;;23.61;34.71
65359;BME280;52491;45.900;6.346;2023-05-20T01:22:12;93573.50;;;23.59;34.88
65359;BME280;52491;45.900;6.346;2023-05-20T01:24:42;93572.44;;;23.60;34.73
65359;BME280;52491;45.900;6.346;2023-05-20T01:27:11;93569.75;;;23.60;34.89
65359;BME280;52491;45.900;6.346;2023-05-20T01:29:38;93564.72;;;23.58;34.73
65359;BME280;52491;45.900;6.346;2023-05-20T01:32:19;93567.09;;;23.60;34.82
65359;BME280;52491;45.900;6.346;2023-05-20T01:34:47;93572.72;;;23.58;34.67
65359;BME280;52491;45.900;6.346;2023-05-20T01:37:14;93563.91;;;23.58;34.73
65359;BME280;52491;45.900;6.346;2023-05-20T01:39:41;93571.63;;;23.59;34.88
65359;BME280;52491;45.900;6.346;2023-05-20T01:42:10;93575.38;;;23.58;34.80
65359;BME280;52491;45.900;6.346;2023-05-20T01:44:36;93568.44;;;23.57;34.67
65359;BME280;52491;45.900;6.346;2023-05-20T01:47:02;93567.38;;;23.58;34.60
65359;BME280;52491;45.900;6.346;2023-05-20T01:49:28;93562.31;;;23.57;34.68
65359;BME280;52491;45.900;6.346;2023-05-20T01:51:54;93557.00;;;23.57;34.73
65359;BME280;52491;45.900;6.346;2023-05-20T01:54:20;93555.91;;;23.58;34.83
65359;BME280;52491;45.900;6.346;2023-05-20T01:56:46;93557.00;;;23.57;34.72
65359;BME280;52491;45.900;6.346;2023-05-20T01:59:11;93558.06;;;23.56;34.61
65359;BME280;52491;45.900;6.346;2023-05-20T02:01:37;93552.75;;;23.56;34.76
65359;BME280;52491;45.900;6.346;2023-05-20T02:04:03;93555.41;;;23.56;34.79
65359;BME280;52491;45.900;6.346;2023-05-20T02:06:29;93556.44;;;23.55;34.64
65359;BME280;52491;45.900;6.346;2023-05-20T02:08:55;93563.38;;;23.56;34.85
65359;BME280;52491;45.900;6.346;2023-05-20T02:11:20;93565.22;;;23.55;34.53
65359;BME280;52491;45.900;6.346;2023-05-20T02:13:46;93575.88;;;23.55;34.40
65359;BME280;52491;45.900;6.346;2023-05-20T02:16:12;93570.53;;;23.55;34.62
65359;BME280;52491;45.900;6.346;2023-05-20T02:18:37;93568.72;;;23.56;34.48
65359;BME280;52491;45.900;6.346;2023-05-20T02:21:03;93558.84;;;23.56;34.40
65359;BME280;52491;45.900;6.346;2023-05-20T02:23:30;93553.78;;;23.55;34.52
65359;BME280;52491;45.900;6.346;2023-05-20T02:25:55;93557.25;;;23.55;34.67
65359;BME280;52491;45.900;6.346;2023-05-20T02:28:21;93553.00;;;23.54;34.45
65359;BME280;52491;45.900;6.346;2023-05-20T02:30:47;93548.47;;;23.55;34.51
65359;BME280;52491;45.900;6.346;2023-05-20T02:33:15;93541.03;;;23.57;34.44
65359;BME280;52491;45.900;6.346;2023-05-20T02:35:41;93547.44;;;23.56;34.30
65359;BME280;52491;45.900;6.346;2023-05-20T02:38:06;93550.34;;;23.54;34.38
65359;BME280;52491;45.900;6.346;2023-05-20T02:40:32;93551.13;;;23.55;34.38
65359;BME280;52491;45.900;6.346;2023-05-20T02:42:58;93553.00;;;23.54;34.54
65359;BME280;52491;45.900;6.346;2023-05-20T02:45:24;93553.78;;;23.55;34.34
65359;BME280;52491;45.900;6.346;2023-05-20T02:47:50;93560.72;;;23.56;34.56
65359;BME280;52491;45.900;6.346;2023-05-20T02:50:15;93553.00;;;23.54;34.36
65359;BME280;52491;45.900;6.346;2023-05-20T02:52:41;93554.88;;;23.54;34.47
65359;BME280;52491;45.900;6.346;2023-05-20T02:55:07;93544.22;;;23.54;34.48
65359;BME280;52491;45.900;6.346;2023-05-20T02:57:34;93545.00;;;23.54;34.52
65359;BME280;52491;45.900;6.346;2023-05-20T03:00:03;93543.44;;;23.53;34.43
65359;BME280;52491;45.900;6.346;2023-05-20T03:02:30;93546.88;;;23.54;34.42
65359;BME280;52491;45.900;6.346;2023-05-20T03:04:56;93544.22;;;23.54;34.43
65359;BME280;52491;45.900;6.346;2023-05-20T03:07:21;93542.63;;;23.53;34.59
65359;BME280;52491;45.900;6.346;2023-05-20T03:09:47;93533.84;;;23.52;34.25
65359;BME280;52491;45.900;6.346;2023-05-20T03:12:13;93541.56;;;23.54;34.34
65359;BME280;52491;45.900;6.346;2023-05-20T03:14:38;93539.97;;;23.53;34.41
65359;BME280;52491;45.900;6.346;2023-05-20T03:17:04;93534.66;;;23.53;34.35
65359;BME280;52491;45.900;6.346;2023-05-20T03:19:30;93533.84;;;23.52;34.42
65359;BME280;52491;45.900;6.346;2023-05-20T03:21:55;93541.81;;;23.52;34.28
65359;BME280;52491;45.900;6.346;2023-05-20T03:24:22;93538.34;;;23.52;34.49
65359;BME280;52491;45.900;6.346;2023-05-20T03:26:48;93533.03;;;23.52;34.36
65359;BME280;52491;45.900;6.346;2023-05-20T03:29:15;93529.34;;;23.53;34.20
65359;BME280;52491;45.900;6.346;2023-05-20T03:31:42;93531.16;;;23.52;34.29
65359;BME280;52491;45.900;6.346;2023-05-20T03:34:07;93533.03;;;23.52;34.38
65359;BME280;52491;45.900;6.346;2023-05-20T03:36:33;93530.38;;;23.52;34.28
65359;BME280;52491;45.900;6.346;2023-05-20T03:38:58;93526.91;;;23.51;34.26
65359;BME280;52491;45.900;6.346;2023-05-20T03:41:24;93525.06;;;23.52;34.19
65359;BME280;52491;45.900;6.346;2023-05-20T03:43:50;93518.94;;;23.51;34.04
65359;BME280;52491;45.900;6.346;2023-05-20T03:46:15;93521.59;;;23.51;34.36
65359;BME280;52491;45.900;6.346;2023-05-20T03:48:41;93526.91;;;23.51;34.23
65359;BME280;52491;45.900;6.346;2023-05-20T03:51:07;93533.03;;;23.52;34.19
65359;BME280;52491;45.900;6.346;2023-05-20T03:53:32;93533.03;;;23.52;34.18
65359;BME280;52491;45.900;6.346;2023-05-20T03:55:58;93534.13;;;23.51;34.19
65359;BME280;52491;45.900;6.346;2023-05-20T03:58:23;93529.84;;;23.50;34.27
65359;BME280;52491;45.900;6.346;2023-05-20T04:00:49;93531.44;;;23.51;34.21
65359;BME280;52491;45.900;6.346;2023-05-20T04:03:15;93528.00;;;23.50;34.18
65359;BME280;52491;45.900;6.346;2023-05-20T04:05:40;93529.84;;;23.50;34.19
65359;BME280;52491;45.900;6.346;2023-05-20T04:08:06;93530.66;;;23.50;33.95
65359;BME280;52491;45.900;6.346;2023-05-20T04:10:31;93522.94;;;23.49;34.01
65359;BME280;52491;45.900;6.346;2023-05-20T04:12:57;93529.03;;;23.49;34.21
65359;BME280;52491;45.900;6.346;2023-05-20T04:15:23;93526.13;;;23.51;34.18
65359;BME280;52491;45.900;6.346;2023-05-20T04:17:50;93529.84;;;23.50;34.01
65359;BME280;52491;45.900;6.346;2023-05-20T04:20:17;93526.38;;;23.49;34.24
65359;BME280;52491;45.900;6.346;2023-05-20T04:22:45;93519.19;;;23.50;33.97
65359;BME280;52491;45.900;6.346;2023-05-20T04:25:11;93525.59;;;23.49;33.99
65359;BME280;52491;45.900;6.346;2023-05-20T04:27:38;93523.72;;;23.49;34.01
65359;BME280;52491;45.900;6.346;2023-05-20T04:30:05;93524.00;;;23.48;34.09
65359;BME280;52491;45.900;6.346;2023-05-20T04:32:31;93522.94;;;23.49;34.15
65359;BME280;52491;45.900;6.346;2023-05-20T04:34:59;93525.59;;;23.49;34.02
65359;BME280;52491;45.900;6.346;2023-05-20T04:37:26;93529.84;;;23.50;33.96
65359;BME280;52491;45.900;6.346;2023-05-20T04:39:52;93529.03;;;23.49;33.92
65359;BME280;52491;45.900;6.346;2023-05-20T04:42:18;93528.25;;;23.49;33.87
65359;BME280;52491;45.900;6.346;2023-05-20T04:44:46;93522.94;;;23.49;34.15
65359;BME280;52491;45.900;6.346;2023-05-20T04:47:12;93518.41;;;23.49;34.08
65359;BME280;52491;45.900;6.346;2023-05-20T04:49:38;93529.03;;;23.49;33.90
65359;BME280;52491;45.900;6.346;2023-05-20T04:52:04;93530.13;;;23.48;33.88
65359;BME280;52491;45.900;6.346;2023-05-20T04:54:31;93531.97;;;23.48;33.90
65359;BME280;52491;45.900;6.346;2023-05-20T04:56:57;93528.25;;;23.49;34.12
65359;BME280;52491;45.900;6.346;2023-05-20T04:59:23;93517.59;;;23.49;34.05
65359;BME280;52491;45.900;6.346;2023-05-20T05:01:49;93510.69;;;23.48;34.07
65359;BME280;52491;45.900;6.346;2023-05-20T05:04:14;93508.84;;;23.48;33.91
65359;BME280;52491;45.900;6.346;2023-05-20T05:06:40;93503.75;;;23.46;34.11
65359;BME280;52491;45.900;6.346;2023-05-20T05:09:06;93502.97;;;23.46;33.89
65359;BME280;52491;45.900;6.346;2023-05-20T05:11:32;93495.00;;;23.46;34.20
65359;BME280;52491;45.900;6.346;2023-05-20T05:13:58;93513.63;;;23.46;34.15
65359;BME280;52491;45.900;6.346;2023-05-20T05:16:23;93507.78;;;23.39;34.25
65359;BME280;52491;45.900;6.346;2023-05-20T05:18:49;93512.53;;;23.37;34.12
65359;BME280;52491;45.900;6.346;2023-05-20T05:21:15;93504.28;;;23.43;34.26
65359;BME280;52491;45.900;6.346;2023-05-20T05:23:41;93503.50;;;23.43;34.18
65359;BME280;52491;45.900;6.346;2023-05-20T05:26:07;93505.38;;;23.42;34.07
65359;BME280;52491;45.900;6.346;2023-05-20T05:28:32;93496.31;;;23.43;33.93
65359;BME280;52491;45.900;6.346;2023-05-20T05:30:58;93495.28;;;23.44;34.14
65359;BME280;52491;45.900;6.346;2023-05-20T05:33:24;93494.19;;;23.45;34.09
65359;BME280;52491;45.900;6.346;2023-05-20T05:35:49;93488.88;;;23.45;34.15
65359;BME280;52491;45.900;6.346;2023-05-20T05:38:15;93488.88;;;23.45;34.25
65359;BME280;52491;45.900;6.346;2023-05-20T05:40:41;93488.88;;;23.45;34.26
65359;BME280;52491;45.900;6.346;2023-05-20T05:43:08;93481.97;;;23.44;34.23
65359;BME280;52491;45.900;6.346;2023-05-20T05:45:35;93484.63;;;23.44;34.04
65359;BME280;52491;45.900;6.346;2023-05-20T05:48:01;93486.22;;;23.45;34.23
65359;BME280;52491;45.900;6.346;2023-05-20T05:50:27;93476.13;;;23.48;34.16
65359;BME280;52491;45.900;6.346;2023-05-20T05:52:53;93472.66;;;23.47;34.19
65359;BME280;52491;45.900;6.346;2023-05-20T05:55:18;93460.41;;;23.46;34.05
65359;BME280;52491;45.900;6.346;2023-05-20T05:57:44;93465.72;;;23.46;34.27
65359;BME280;52491;45.900;6.346;2023-05-20T06:00:10;93470.25;;;23.45;34.17
65359;BME280;52491;45.900;6.346;2023-05-20T06:02:36;93474.50;;;23.46;34.32
65359;BME280;52491;45.900;6.346;2023-05-20T06:05:02;93480.63;;;23.47;34.37
65359;BME280;52491;45.900;6.346;2023-05-20T06:07:28;93477.16;;;23.46;34.32
65359;BME280;52491;45.900;6.346;2023-05-20T06:09:54;93469.72;;;23.49;34.32
65359;BME280;52491;45.900;6.346;2023-05-20T06:12:19;93465.72;;;23.46;34.23
65359;BME280;52491;45.900;6.346;2023-05-20T06:14:46;93457.50;;;23.48;34.32
65359;BME280;52491;45.900;6.346;2023-05-20T06:17:12;93457.75;;;23.46;34.28
65359;BME280;52491;45.900;6.346;2023-05-20T06:19:37;93450.56;;;23.46;34.33
65359;BME280;52491;45.900;6.346;2023-05-20T06:22:03;93445.78;;;23.49;34.32
65359;BME280;52491;45.900;6.346;2023-05-20T06:24:29;93445.53;;;23.50;34.41
65359;BME280;52491;45.900;6.346;2023-05-20T06:26:55;93440.19;;;23.50;34.54
65359;BME280;52491;45.900;6.346;2023-05-20T06:29:20;93436.72;;;23.50;34.78
65359;BME280;52491;45.900;6.346;2023-05-20T06:31:46;93435.66;;;23.51;34.57
65359;BME280;52491;45.900;6.346;2023-05-20T06:34:11;93433.00;;;23.51;34.54
65359;BME280;52491;45.900;6.346;2023-05-20T06:36:37;93433.81;;;23.51;34.66
65359;BME280;52491;45.900;6.346;2023-05-20T06:39:02;93441.78;;;23.51;34.62
65359;BME280;52491;45.900;6.346;2023-05-20T06:41:40;93436.22;;;23.53;34.65
65359;BME280;52491;45.900;6.346;2023-05-20T06:44:12;93433.81;;;23.51;34.81
65359;BME280;52491;45.900;6.346;2023-05-20T06:46:44;93433.00;;;23.51;34.55
65359;BME280;52491;45.900;6.346;2023-05-20T06:52:48;93444.44;;;23.51;34.80
65359;BME280;52491;45.900;6.346;2023-05-20T06:55:20;93436.47;;;23.51;34.82
65359;BME280;52491;45.900;6.346;2023-05-20T06:57:49;93431.94;;;23.52;34.97
65359;BME280;52491;45.900;6.346;2023-05-20T07:00:16;93432.72;;;23.52;34.68
65359;BME280;52491;45.900;6.346;2023-05-20T07:03:07;93436.22;;;23.53;35.00
65359;BME280;52491;45.900;6.346;2023-05-20T07:05:36;93444.19;;;23.53;34.88
65359;BME280;52491;45.900;6.346;2023-05-20T07:08:02;93443.38;;;23.52;35.00
65359;BME280;52491;45.900;6.346;2023-05-20T07:10:34;93443.91;;;23.54;35.22
65359;BME280;52491;45.900;6.346;2023-05-20T07:13:00;93444.97;;;23.53;35.07
65359;BME280;52491;45.900;6.346;2023-05-20T07:15:27;93434.34;;;23.53;34.98
65359;BME280;52491;45.900;6.346;2023-05-20T07:17:53;93440.72;;;23.52;35.25
65359;BME280;52491;45.900;6.346;2023-05-20T07:20:19;93438.88;;;23.53;35.09
65359;BME280;52491;45.900;6.346;2023-05-20T07:22:45;93441.53;;;23.53;35.22
65359;BME280;52491;45.900;6.346;2023-05-20T07:25:13;93435.13;;;23.54;35.31
65359;BME280;52491;45.900;6.346;2023-05-20T07:27:39;93429.03;;;23.53;35.34
65359;BME280;52491;45.900;6.346;2023-05-20T07:30:05;93423.69;;;23.53;35.37
65359;BME280;52491;45.900;6.346;2023-05-20T07:32:32;93424.50;;;23.54;35.47
65359;BME280;52491;45.900;6.346;2023-05-20T07:34:57;93426.06;;;23.55;35.48
65359;BME280;52491;45.900;6.346;2023-05-20T07:37:23;93431.38;;;23.55;35.37
65359;BME280;52491;45.900;6.346;2023-05-20T07:39:49;93434.06;;;23.55;35.48
65359;BME280;52491;45.900;6.346;2023-05-20T07:42:15;93432.19;;;23.55;35.48
65359;BME280;52491;45.900;6.346;2023-05-20T07:44:40;93421.28;;;23.57;35.58
65359;BME280;52491;45.900;6.346;2023-05-20T07:47:06;93425.81;;;23.56;35.42
65359;BME280;52491;45.900;6.346;2023-05-20T07:49:32;93412.50;;;23.56;35.41
65359;BME280;52491;45.900;6.346;2023-05-20T07:51:57;93405.31;;;23.57;35.41
65359;BME280;52491;45.900;6.346;2023-05-20T07:54:23;93408.78;;;23.57;35.57
65359;BME280;52491;45.900;6.346;2023-05-20T07:56:49;93397.88;;;23.59;35.39
65359;BME280;52491;45.900;6.346;2023-05-20T07:59:15;93385.63;;;23.58;35.19
65359;BME280;52491;45.900;6.346;2023-05-20T08:01:41;93389.91;;;23.59;35.28
65359;BME280;52491;45.900;6.346;2023-05-20T08:04:07;93392.56;;;23.59;35.42
65359;BME280;52491;45.900;6.346;2023-05-20T08:06:33;93386.16;;;23.60;35.43
65359;BME280;52491;45.900;6.346;2023-05-20T08:09:00;93384.56;;;23.59;35.28
65359;BME280;52491;45.900;6.346;2023-05-20T08:11:26;93375.50;;;23.60;35.36
65359;BME280;52491;45.900;6.346;2023-05-20T08:13:53;93391.47;;;23.60;35.51
65359;BME280;52491;45.900;6.346;2023-05-20T08:16:20;93384.28;;;23.60;35.14
65359;BME280;52491;45.900;6.346;2023-05-20T08:18:47;93378.97;;;23.60;35.22
65359;BME280;52491;45.900;6.346;2023-05-20T08:21:13;93386.16;;;23.60;35.13
65359;BME280;52491;45.900;6.346;2023-05-20T08:23:39;93388.56;;;23.61;35.25
65359;BME280;52491;45.900;6.346;2023-05-20T08:26:06;93391.22;;;23.61;35.13
65359;BME280;52491;45.900;6.346;2023-05-20T08:28:32;93386.16;;;23.60;34.88
65359;BME280;52491;45.900;6.346;2023-05-20T08:31:00;93381.63;;;23.60;35.01
65359;BME280;52491;45.900;6.346;2023-05-20T08:33:26;93375.25;;;23.61;35.05
65359;BME280;52491;45.900;6.346;2023-05-20T08:35:52;93376.31;;;23.60;35.08
65359;BME280;52491;45.900;6.346;2023-05-20T08:38:18;93382.41;;;23.61;34.70
65359;BME280;52491;45.900;6.346;2023-05-20T08:40:44;93384.03;;;23.62;34.78
65359;BME280;52491;45.900;6.346;2023-05-20T08:43:09;93377.09;;;23.61;34.79
65359;BME280;52491;45.900;6.346;2023-05-20T08:45:37;93377.63;;;23.63;34.93
65359;BME280;52491;45.900;6.346;2023-05-20T08:48:03;93368.84;;;23.62;34.99
65359;BME280;52491;45.900;6.346;2023-05-20T08:50:29;93373.91;;;23.64;34.90
65359;BME280;52491;45.900;6.346;2023-05-20T08:52:55;93374.19;;;23.62;34.79
65359;BME280;52491;45.900;6.346;2023-05-20T08:55:27;93363.28;;;23.64;34.81
65359;BME280;52491;45.900;6.346;2023-05-20T08:57:55;93359.78;;;23.63;34.75
65359;BME280;52491;45.900;6.346;2023-05-20T09:00:22;93360.63;;;23.64;34.82
65359;BME280;52491;45.900;6.346;2023-05-20T09:02:52;93368.59;;;23.64;34.78
65359;BME280;52491;45.900;6.346;2023-05-20T09:05:19;93367.78;;;23.63;35.03
65359;BME280;52491;45.900;6.346;2023-05-20T09:07:46;93362.47;;;23.63;34.89
65359;BME280;52491;45.900;6.346;2023-05-20T09:10:12;93360.63;;;23.64;35.07
65359;BME280;52491;45.900;6.346;2023-05-20T09:12:37;93370.47;;;23.58;35.45
65359;BME280;52491;45.900;6.346;2023-05-20T09:15:04;93365.94;;;23.59;35.31
65359;BME280;52491;45.900;6.346;2023-05-20T09:17:31;93365.94;;;23.59;35.02
65359;BME280;52491;45.900;6.346;2023-05-20T09:19:56;93371.28;;;23.59;34.89
65359;BME280;52491;45.900;6.346;2023-05-20T09:22:26;93368.59;;;23.59;35.07
65359;BME280;52491;45.900;6.346;2023-05-20T09:24:54;93365.94;;;23.59;34.99
65359;BME280;52491;45.900;6.346;2023-05-20T09:27:20;93366.75;;;23.59;35.25
65359;BME280;52491;45.900;6.346;2023-05-20T09:29:47;93365.94;;;23.59;35.20
65359;BME280;52491;45.900;6.346;2023-05-20T09:32:14;93358.75;;;23.59;35.20
65359;BME280;52491;45.900;6.346;2023-05-20T09:34:39;93359.53;;;23.60;35.22
65359;BME280;52491;45.900;6.346;2023-05-20T09:37:10;93354.22;;;23.60;35.00
65359;BME280;52491;45.900;6.346;2023-05-20T09:39:46;93358.47;;;23.61;35.06
65359;BME280;52491;45.900;6.346;2023-05-20T09:42:22;93353.97;;;23.61;35.22
65359;BME280;52491;45.900;6.346;2023-05-20T09:44:52;93350.50;;;23.61;35.19
65359;BME280;52491;45.900;6.346;2023-05-20T09:47:18;93345.16;;;23.61;35.01
65359;BME280;52491;45.900;6.346;2023-05-20T09:49:48;93341.47;;;23.62;35.00
65359;BME280;52491;45.900;6.346;2023-05-20T09:52:14;93340.66;;;23.61;35.01
65359;BME280;52491;45.900;6.346;2023-05-20T09:54:41;93334.53;;;23.61;35.19
65359;BME280;52491;45.900;6.346;2023-05-20T09:57:08;93337.19;;;23.61;35.10
65359;BME280;52491;45.900;6.346;2023-05-20T09:59:36;93336.13;;;23.62;34.89
65359;BME280;52491;45.900;6.346;2023-05-20T10:02:02;93334.53;;;23.61;35.17
65359;BME280;52491;45.900;6.346;2023-05-20T10:04:28;93346.78;;;23.62;34.96
65359;BME280;52491;45.900;6.346;2023-05-20T10:20:23;93324.69;;;23.61;35.29
65359;BME280;52491;45.900;6.346;2023-05-20T10:22:57;93315.63;;;23.62;35.00
65359;BME280;52491;45.900;6.346;2023-05-20T10:25:27;93316.44;;;23.63;35.13
65359;BME280;52491;45.900;6.346;2023-05-20T10:28:03;93308.44;;;23.63;35.08
65359;BME280;52491;45.900;6.346;2023-05-20T10:30:29;93317.22;;;23.63;34.94
65359;BME280;52491;45.900;6.346;2023-05-20T10:32:57;93311.63;;;23.65;35.20
65359;BME280;52491;45.900;6.346;2023-05-20T10:35:26;93313.50;;;23.64;35.00
65359;BME280;52491;45.900;6.346;2023-05-20T10:37:53;93311.63;;;23.65;34.93
65359;BME280;52491;45.900;6.346;2023-05-20T10:40:21;93315.38;;;23.64;35.15
65359;BME280;52491;45.900;6.346;2023-05-20T10:42:47;93318.84;;;23.64;35.00
65359;BME280;52491;45.900;6.346;2023-05-20T10:45:33;93311.34;;;23.66;34.80
65359;BME280;52491;45.900;6.346;2023-05-20T10:48:01;93308.19;;;23.64;34.96
65359;BME280;52491;45.900;6.346;2023-05-20T10:50:34;93302.88;;;23.64;35.07
65359;BME280;52491;45.900;6.346;2023-05-20T10:53:11;93306.31;;;23.65;35.23
65359;BME280;52491;45.900;6.346;2023-05-20T10:55:45;93300.19;;;23.64;35.29
65359;BME280;52491;45.900;6.346;2023-05-20T10:58:13;93291.44;;;23.64;35.41
65359;BME280;52491;45.900;6.346;2023-05-20T11:00:39;93283.16;;;23.65;35.28
65359;BME280;52491;45.900;6.346;2023-05-20T11:03:05;93287.69;;;23.65;35.06
65359;BME280;52491;45.900;6.346;2023-05-20T11:05:31;93285.56;;;23.67;35.29
65359;BME280;52491;45.900;6.346;2023-05-20T11:08:06;93286.34;;;23.67;35.13
65359;BME280;52491;45.900;6.346;2023-05-20T11:10:33;93287.41;;;23.66;35.23
65359;BME280;52491;45.900;6.346;2023-05-20T11:13:00;93284.47;;;23.68;35.20
65359;BME280;52491;45.900;6.346;2023-05-20T11:15:27;93281.03;;;23.67;35.23
65359;BME280;52491;45.900;6.346;2023-05-20T11:17:56;93271.19;;;23.68;35.14
65359;BME280;52491;45.900;6.346;2023-05-20T11:20:22;93282.63;;;23.68;35.07
65359;BME280;52491;45.900;6.346;2023-05-20T11:22:52;93271.97;;;23.68;35.05
65359;BME280;52491;45.900;6.346;2023-05-20T11:25:19;93271.19;;;23.68;35.14
65359;BME280;52491;45.900;6.346;2023-05-20T11:27:45;93271.97;;;23.68;35.20
65359;BME280;52491;45.900;6.346;2023-05-20T11:30:15;93275.41;;;23.69;35.39
65359;BME280;52491;45.900;6.346;2023-05-20T11:33:01;93274.38;;;23.70;35.09
65359;BME280;52491;45.900;6.346;2023-05-20T11:35:28;93273.84;;;23.68;35.22
65359;BME280;52491;45.900;6.346;2023-05-20T11:38:02;93273.56;;;23.70;35.05
65359;BME280;52491;45.900;6.346;2023-05-20T11:40:29;93265.06;;;23.67;35.17
65359;BME280;52491;45.900;6.346;2023-05-20T11:42:56;93266.66;;;23.68;35.22
65359;BME280;52491;45.900;6.346;2023-05-20T11:45:22;93266.66;;;23.68;35.22
65359;BME280;52491;45.900;6.346;2023-05-20T11:48:04;93267.44;;;23.69;35.20
65359;BME280;52491;45.900;6.346;2023-05-20T11:50:40;93253.06;;;23.70;35.20
65359;BME280;52491;45.900;6.346;2023-05-20T11:53:09;93250.69;;;23.68;35.27
65359;BME280;52491;45.900;6.346;2023-05-20T11:55:47;93257.34;;;23.71;35.19
65359;BME280;52491;45.900;6.346;2023-05-20T11:58:24;93255.75;;;23.70;35.02
65359;BME280;52491;45.900;6.346;2023-05-20T12:00:50;93254.94;;;23.70;35.24
65359;BME280;52491;45.900;6.346;2023-05-20T12:03:16;93255.75;;;23.70;34.99
65359;BME280;52491;45.900;6.346;2023-05-20T12:05:42;93253.91;;;23.71;35.31
65359;BME280;52491;45.900;6.346;2023-05-20T12:08:07;93253.91;;;23.71;35.41
65359;BME280;52491;45.900;6.346;2023-05-20T12:10:33;93254.44;;;23.73;35.02
65359;BME280;52491;45.900;6.346;2023-05-20T12:12:59;93252.56;;;23.73;35.29
65359;BME280;52491;45.900;6.346;2023-05-20T12:15:25;93254.13;;;23.74;35.40
65359;BME280;52491;45.900;6.346;2023-05-20T12:17:52;93254.94;;;23.75;35.20
65359;BME280;52491;45.900;6.346;2023-05-20T12:20:20;93262.13;;;23.74;35.08
65359;BME280;52491;45.900;6.346;2023-05-20T12:22:47;93260.25;;;23.75;35.23
65359;BME280;52491;45.900;6.346;2023-05-20T12:25:17;93260.25;;;23.75;35.08
65359;BME280;52491;45.900;6.346;2023-05-20T12:27:45;93261.06;;;23.75;35.19
65359;BME280;52491;45.900;6.346;2023-05-20T12:30:15;93267.44;;;23.74;35.40
65359;BME280;52491;45.900;6.346;2023-05-20T12:32:42;93268.78;;;23.77;35.27
65359;BME280;52491;45.900;6.346;2023-05-20T12:35:08;93269.56;;;23.77;35.36
65359;BME280;52491;45.900;6.346;2023-05-20T12:37:35;93260.78;;;23.77;35.45
65359;BME280;52491;45.900;6.346;2023-05-20T12:40:02;93253.88;;;23.76;35.23
65359;BME280;52491;45.900;6.346;2023-05-20T12:42:35;93252.53;;;23.78;35.40
65359;BME280;52491;45.900;6.346;2023-05-20T12:45:01;93249.88;;;23.78;35.30
65359;BME280;52491;45.900;6.346;2023-05-20T12:47:27;93254.13;;;23.79;35.54
65359;BME280;52491;45.900;6.346;2023-05-20T12:49:53;93254.38;;;23.78;35.36
65359;BME280;52491;45.900;6.346;2023-05-20T12:52:18;93255.19;;;23.78;35.47
65359;BME280;52491;45.900;6.346;2023-05-20T12:54:44;93261.03;;;23.80;35.28
65359;BME280;52491;45.900;6.346;2023-05-20T12:57:10;93256.78;;;23.79;35.40
65359;BME280;52491;45.900;6.346;2023-05-20T12:59:36;93255.69;;;23.80;35.46
65359;BME280;52491;45.900;6.346;2023-05-20T13:02:01;93256.78;;;23.79;35.54
65359;BME280;52491;45.900;6.346;2023-05-20T13:04:27;93262.09;;;23.79;35.57
65359;BME280;52491;45.900;6.346;2023-05-20T13:06:53;93262.91;;;23.80;35.52
65359;BME280;52491;45.900;6.346;2023-05-20T13:09:19;93262.91;;;23.80;35.51
65359;BME280;52491;45.900;6.346;2023-05-20T13:11:45;93261.84;;;23.81;35.32
65359;BME280;52491;45.900;6.346;2023-05-20T13:14:10;93268.22;;;23.80;35.71
65359;BME280;52491;45.900;6.346;2023-05-20T13:16:44;93269.00;;;23.80;35.31